createdAt,value
2018-04-22T00:00:50.820Z,9.40
2018-04-22T00:03:19.875Z,9.20
2018-04-22T00:05:48.367Z,9.20
2018-04-22T00:08:16.647Z,9.20
2018-04-22T00:10:44.920Z,9.10
2018-04-22T00:13:14.118Z,9.30
2018-04-22T00:15:43.167Z,9.20
2018-04-22T00:18:11.467Z,9.20
2018-04-22T00:20:39.804Z,9.20
2018-04-22T00:23:08.904Z,9.00
2018-04-22T00:25:37.189Z,9.00
2018-04-22T00:28:05.465Z,8.90
2018-04-22T00:30:33.792Z,8.80
2018-04-22T00:33:02.878Z,8.90
2018-04-22T00:35:31.252Z,8.80
2018-04-22T00:37:59.532Z,8.90
2018-04-22T00:40:27.817Z,8.80
2018-04-22T00:42:56.341Z,8.80
2018-04-22T00:45:24.652Z,8.80
2018-04-22T00:47:53.723Z,9.00
2018-04-22T00:50:22.210Z,9.00
2018-04-22T00:52:50.497Z,9.10
2018-04-22T00:55:18.773Z,8.90
2018-04-22T00:57:47.232Z,8.90
2018-04-22T01:00:15.513Z,9.00
2018-04-22T01:02:44.609Z,8.90
2018-04-22T01:05:12.896Z,8.80
2018-04-22T01:07:42.005Z,8.90
2018-04-22T01:10:10.373Z,8.90
2018-04-22T01:12:38.657Z,8.90
2018-04-22T01:15:06.932Z,8.80
2018-04-22T01:17:35.261Z,8.70
2018-04-22T01:20:03.629Z,8.70
2018-04-22T01:22:32.232Z,8.80
2018-04-22T01:25:00.513Z,8.80
2018-04-22T01:27:28.792Z,8.90
2018-04-22T01:29:57.126Z,9.00
2018-04-22T01:32:26.169Z,8.50
2018-04-22T01:34:54.631Z,8.50
2018-04-22T01:37:22.929Z,8.40
2018-04-22T01:39:52.320Z,8.30
2018-04-22T01:42:21.378Z,8.50
2018-04-22T01:44:49.665Z,8.40
2018-04-22T01:47:17.989Z,8.40
2018-04-22T01:49:46.308Z,8.70
2018-04-22T01:52:15.353Z,8.50
2018-04-22T01:54:43.681Z,8.50
2018-04-22T01:57:12.021Z,8.40
2018-04-22T01:59:40.661Z,8.30
2018-04-22T02:02:08.944Z,8.20
2018-04-22T02:04:37.228Z,8.20
2018-04-22T02:07:05.565Z,8.20
2018-04-22T02:09:34.929Z,8.20
2018-04-22T02:12:03.760Z,8.20
2018-04-22T02:14:32.048Z,8.10
2018-04-22T02:17:01.149Z,7.90
2018-04-22T02:19:29.536Z,7.80
2018-04-22T02:21:58.020Z,7.80
2018-04-22T02:24:26.649Z,7.70
2018-04-22T02:26:55.715Z,7.70
2018-04-22T02:29:24.041Z,7.70
2018-04-22T02:31:53.187Z,7.60
2018-04-22T02:34:21.629Z,7.60
2018-04-22T02:36:50.688Z,8.00
2018-04-22T02:39:19.027Z,7.90
2018-04-22T02:41:47.349Z,7.90
2018-04-22T02:44:16.446Z,7.70
2018-04-22T02:46:45.525Z,7.70
2018-04-22T02:49:13.813Z,7.60
2018-04-22T02:51:42.149Z,7.50
2018-04-22T02:54:10.489Z,7.30
2018-04-22T02:56:38.832Z,7.30
2018-04-22T02:59:07.169Z,7.40
2018-04-22T03:01:35.565Z,7.40
2018-04-22T03:04:03.901Z,7.50
2018-04-22T03:06:32.256Z,7.40
2018-04-22T03:09:02.053Z,7.10
2018-04-22T03:11:30.389Z,7.10
2018-04-22T03:13:59.444Z,7.00
2018-04-22T03:16:28.061Z,7.00
2018-04-22T03:18:56.375Z,7.00
2018-04-22T03:21:25.555Z,7.20
2018-04-22T03:23:53.915Z,7.20
2018-04-22T03:26:22.212Z,7.30
2018-04-22T03:28:50.841Z,7.30
2018-04-22T03:31:19.125Z,7.30
2018-04-22T03:33:47.406Z,7.50
2018-04-22T03:36:15.728Z,7.50
2018-04-22T03:38:44.777Z,7.30
2018-04-22T03:41:13.097Z,7.30
2018-04-22T03:43:41.382Z,7.10
2018-04-22T03:46:09.705Z,7.10
2018-04-22T03:48:37.988Z,6.90
2018-04-22T03:51:06.321Z,6.90
2018-04-22T03:53:34.606Z,7.00
2018-04-22T03:56:02.940Z,7.10
2018-04-22T03:58:33.077Z,7.00
2018-04-22T04:01:01.773Z,6.90
2018-04-22T04:03:30.171Z,6.90
2018-04-22T04:05:58.453Z,6.80
2018-04-22T04:08:26.924Z,6.90
2018-04-22T04:10:55.281Z,6.90
2018-04-22T04:13:23.587Z,7.10
2018-04-22T04:15:51.946Z,7.30
2018-04-22T04:21:43.856Z,7.30
2018-04-22T04:27:47.077Z,7.20
2018-04-22T04:30:16.181Z,7.20
2018-04-22T04:32:45.269Z,7.10
2018-04-22T04:35:13.649Z,7.10
2018-04-22T04:37:41.937Z,7.30
2018-04-22T04:40:10.217Z,7.40
2018-04-22T04:42:38.544Z,7.50
2018-04-22T04:45:07.641Z,7.70
2018-04-22T04:47:35.970Z,7.70
2018-04-22T04:50:04.254Z,7.90
2018-04-22T04:52:32.589Z,8.00
2018-04-22T04:55:00.912Z,8.20
2018-04-22T04:57:29.993Z,8.40
2018-04-22T04:59:58.337Z,8.30
2018-04-22T05:02:26.685Z,8.50
2018-04-22T05:04:54.974Z,8.50
2018-04-22T05:07:24.818Z,9.00
2018-04-22T05:09:53.112Z,9.00
2018-04-22T05:12:21.470Z,9.00
2018-04-22T05:14:49.760Z,9.20
2018-04-22T05:17:18.093Z,9.30
2018-04-22T05:19:46.370Z,9.40
2018-04-22T05:22:15.462Z,9.90
2018-04-22T05:24:43.788Z,9.90
2018-04-22T05:27:12.121Z,10.10
2018-04-22T05:29:40.421Z,10.30
2018-04-22T05:32:08.761Z,10.40
2018-04-22T05:34:37.049Z,10.40
2018-04-22T05:37:05.378Z,10.60
2018-04-22T05:39:33.677Z,11.00
2018-04-22T05:42:01.962Z,11.20
2018-04-22T05:44:30.292Z,11.40
2018-04-22T05:46:58.961Z,11.60
2018-04-22T05:49:28.068Z,11.80
2018-04-22T05:51:56.352Z,11.80
2018-04-22T05:54:24.884Z,11.90
2018-04-22T05:56:53.282Z,12.10
2018-04-22T05:59:21.584Z,12.50
2018-04-22T06:01:49.909Z,12.80
2018-04-22T06:04:18.244Z,13.20
2018-04-22T06:06:46.529Z,13.40
2018-04-22T06:09:15.185Z,13.70
2018-04-22T06:11:43.473Z,13.80
2018-04-22T06:14:11.762Z,13.80
2018-04-22T06:16:40.119Z,13.90
2018-04-22T06:19:08.396Z,14.10
2018-04-22T06:21:36.733Z,14.30
2018-04-22T06:24:05.073Z,14.50
2018-04-22T06:26:33.399Z,14.70
2018-04-22T06:29:01.805Z,14.70
2018-04-22T06:31:30.097Z,14.80
2018-04-22T06:33:59.465Z,15.40
2018-04-22T06:36:27.744Z,15.30
2018-04-22T06:38:56.078Z,15.50
2018-04-22T06:41:24.360Z,15.70
2018-04-22T06:43:52.705Z,16.00
2018-04-22T06:46:21.780Z,16.50
2018-04-22T06:48:50.113Z,16.50
2018-04-22T06:51:18.397Z,16.50
2018-04-22T06:53:46.732Z,16.70
2018-04-22T06:56:15.029Z,16.90
2018-04-22T06:58:43.390Z,17.00
2018-04-22T07:01:11.716Z,17.10
2018-04-22T07:03:40.449Z,17.20
2018-04-22T07:06:09.501Z,17.30
2018-04-22T07:08:37.808Z,17.30
2018-04-22T07:11:06.908Z,17.30
2018-04-22T07:13:35.180Z,17.30
2018-04-22T07:16:03.468Z,17.30
2018-04-22T07:18:31.806Z,17.40
2018-04-22T07:21:00.089Z,17.50
2018-04-22T07:23:28.777Z,17.60
2018-04-22T07:25:57.074Z,17.50
2018-04-22T07:28:25.478Z,17.40
2018-04-22T07:30:54.593Z,17.30
2018-04-22T07:33:24.240Z,17.30
2018-04-22T07:35:53.688Z,17.30
2018-04-22T07:38:22.050Z,17.50
2018-04-22T07:40:50.421Z,17.60
2018-04-22T07:43:19.473Z,18.10
2018-04-22T07:45:47.809Z,18.10
2018-04-22T07:48:16.851Z,18.50
2018-04-22T07:50:45.204Z,18.40
2018-04-22T07:53:14.253Z,18.50
2018-04-22T07:55:42.537Z,18.50
2018-04-22T07:58:10.861Z,18.60
2018-04-22T08:00:39.193Z,18.60
2018-04-22T08:03:07.545Z,18.50
2018-04-22T08:05:35.880Z,18.60
2018-04-22T08:08:04.209Z,18.80
2018-04-22T08:10:32.489Z,18.80
2018-04-22T08:13:00.903Z,19.10
2018-04-22T08:15:29.228Z,19.10
2018-04-22T08:17:58.312Z,19.40
2018-04-22T08:20:26.705Z,19.50
2018-04-22T08:22:55.192Z,19.40
2018-04-22T08:25:23.850Z,19.40
2018-04-22T08:27:52.205Z,19.40
2018-04-22T08:30:20.562Z,19.30
2018-04-22T08:32:48.842Z,19.30
2018-04-22T08:35:17.175Z,19.60
2018-04-22T08:37:46.221Z,19.70
2018-04-22T08:40:14.553Z,19.70
2018-04-22T08:42:42.948Z,19.60
2018-04-22T08:45:11.309Z,19.60
2018-04-22T08:47:39.757Z,19.60
2018-04-22T08:50:08.417Z,19.80
2018-04-22T08:52:37.465Z,20.10
2018-04-22T08:55:06.017Z,20.10
2018-04-22T08:57:34.609Z,20.10
2018-04-22T09:00:02.908Z,20.20
2018-04-22T09:02:31.184Z,20.30
2018-04-22T09:04:59.577Z,20.30
2018-04-22T09:07:27.908Z,20.40
2018-04-22T09:09:57.090Z,20.70
2018-04-22T09:12:25.492Z,20.70
2018-04-22T09:14:54.192Z,20.60
2018-04-22T09:17:23.323Z,20.50
2018-04-22T09:19:52.395Z,20.50
2018-04-22T09:22:21.605Z,20.70
2018-04-22T09:24:50.980Z,20.60
2018-04-22T09:27:19.306Z,20.50
2018-04-22T09:29:47.589Z,20.60
2018-04-22T09:32:16.186Z,20.70
2018-04-22T09:34:44.575Z,20.80
2018-04-22T09:37:12.853Z,21.20
2018-04-22T09:39:41.208Z,21.30
2018-04-22T09:42:09.501Z,21.50
2018-04-22T09:44:37.842Z,21.00
2018-04-22T09:47:06.167Z,21.20
2018-04-22T09:49:34.422Z,21.10
2018-04-22T09:52:03.397Z,20.90
2018-04-22T09:54:31.673Z,20.70
2018-04-22T09:57:00.005Z,20.80
2018-04-22T09:59:28.345Z,21.10
2018-04-22T10:01:58.531Z,21.40
2018-04-22T10:04:28.637Z,21.70
2018-04-22T10:06:56.924Z,21.80
2018-04-22T10:09:25.257Z,21.90
2018-04-22T10:11:54.593Z,22.00
2018-04-22T10:14:22.964Z,22.00
2018-04-22T10:16:52.989Z,22.10
2018-04-22T10:19:21.504Z,22.00
2018-04-22T10:21:50.555Z,21.90
2018-04-22T10:24:18.905Z,21.90
2018-04-22T10:26:47.255Z,21.90
2018-04-22T10:29:15.544Z,22.10
2018-04-22T10:31:45.383Z,22.00
2018-04-22T10:34:14.484Z,22.10
2018-04-22T10:36:42.814Z,22.00
2018-04-22T10:39:11.173Z,22.10
2018-04-22T10:41:39.869Z,22.30
2018-04-22T10:44:08.245Z,22.50
2018-04-22T10:46:36.536Z,22.70
2018-04-22T10:49:04.868Z,22.70
2018-04-22T10:51:33.236Z,22.40
2018-04-22T10:54:01.557Z,22.50
2018-04-22T10:56:29.847Z,22.60
2018-04-22T10:58:58.124Z,22.70
2018-04-22T11:01:26.453Z,22.70
2018-04-22T11:03:55.263Z,22.30
2018-04-22T11:06:23.568Z,21.90
2018-04-22T11:08:52.459Z,21.90
2018-04-22T11:11:20.784Z,22.20
2018-04-22T11:13:49.132Z,22.60
2018-04-22T11:16:17.412Z,22.80
2018-04-22T11:18:45.746Z,22.90
2018-04-22T11:21:14.797Z,21.70
2018-04-22T11:23:43.076Z,21.70
2018-04-22T11:26:11.420Z,21.60
2018-04-22T11:28:39.701Z,21.80
2018-04-22T11:31:07.981Z,22.30
2018-04-22T11:33:36.319Z,22.60
2018-04-22T11:36:04.605Z,22.80
2018-04-22T11:38:33.653Z,23.00
2018-04-22T11:41:02.180Z,23.00
2018-04-22T11:43:30.460Z,23.10
2018-04-22T11:45:58.744Z,23.10
2018-04-22T11:48:27.082Z,22.80
2018-04-22T11:50:55.391Z,23.10
2018-04-22T11:53:24.124Z,23.30
2018-04-22T11:55:52.562Z,23.50
2018-04-22T11:58:20.942Z,23.60
2018-04-22T12:00:49.993Z,24.00
2018-04-22T12:03:18.277Z,24.00
2018-04-22T12:05:46.611Z,24.00
2018-04-22T12:08:14.889Z,23.70
2018-04-22T12:10:43.174Z,23.40
2018-04-22T12:13:13.017Z,23.70
2018-04-22T12:15:42.121Z,23.80
2018-04-22T12:18:10.416Z,23.90
2018-04-22T12:20:39.491Z,23.30
2018-04-22T12:23:07.832Z,23.30
2018-04-22T12:25:36.160Z,23.40
2018-04-22T12:28:04.881Z,23.40
2018-04-22T12:30:33.177Z,23.30
2018-04-22T12:33:01.457Z,23.20
2018-04-22T12:35:30.053Z,23.10
2018-04-22T12:37:58.351Z,23.10
2018-04-22T12:40:26.741Z,23.10
2018-04-22T12:42:55.092Z,23.40
2018-04-22T12:45:23.422Z,23.70
2018-04-22T12:47:51.770Z,23.40
2018-04-22T12:50:20.102Z,23.30
2018-04-22T12:52:48.424Z,22.70
2018-04-22T12:55:16.867Z,22.50
2018-04-22T12:57:45.189Z,22.70
2018-04-22T13:00:13.557Z,23.10
2018-04-22T13:02:43.485Z,23.30
2018-04-22T13:05:11.816Z,23.30
2018-04-22T13:07:40.109Z,23.50
2018-04-22T13:10:08.461Z,23.30
2018-04-22T13:12:36.848Z,22.80
2018-04-22T13:15:05.124Z,22.90
2018-04-22T13:17:33.456Z,23.20
2018-04-22T13:20:02.517Z,23.40
2018-04-22T13:22:30.835Z,23.40
2018-04-22T13:24:59.962Z,23.10
2018-04-22T13:27:29.669Z,23.00
2018-04-22T13:29:58.082Z,22.90
2018-04-22T13:32:26.464Z,23.00
2018-04-22T13:34:55.522Z,22.90
2018-04-22T13:37:24.051Z,22.90
2018-04-22T13:39:52.436Z,23.20
2018-04-22T13:42:20.788Z,23.30
2018-04-22T13:44:49.070Z,23.50
2018-04-22T13:47:17.490Z,23.90
2018-04-22T13:49:45.765Z,24.10
2018-04-22T13:52:14.330Z,24.00
2018-04-22T13:54:43.708Z,23.90
2018-04-22T13:57:12.049Z,23.90
2018-04-22T13:59:40.341Z,24.30
2018-04-22T14:02:09.051Z,24.20
2018-04-22T14:04:38.066Z,23.50
2018-04-22T14:07:06.341Z,23.40
2018-04-22T14:09:34.993Z,23.10
2018-04-22T14:12:04.185Z,23.10
2018-04-22T14:14:32.470Z,23.10
2018-04-22T14:17:00.814Z,23.20
2018-04-22T14:19:29.093Z,23.40
2018-04-22T14:21:57.421Z,23.60
2018-04-22T14:24:25.762Z,23.60
2018-04-22T14:26:54.871Z,23.50
2018-04-22T14:29:23.925Z,23.50
2018-04-22T14:31:52.219Z,23.40
2018-04-22T14:34:20.694Z,23.40
2018-04-22T14:36:48.977Z,23.50
2018-04-22T14:39:17.304Z,23.50
2018-04-22T14:41:45.901Z,23.70
2018-04-22T14:44:26.069Z,23.70
2018-04-22T14:46:54.396Z,24.00
2018-04-22T14:49:22.697Z,24.10
2018-04-22T14:51:50.987Z,24.00
2018-04-22T14:54:19.425Z,23.80
2018-04-22T14:56:47.729Z,24.00
2018-04-22T14:59:17.670Z,23.90
2018-04-22T15:01:46.725Z,23.30
2018-04-22T15:04:15.148Z,23.30
2018-04-22T15:06:43.475Z,23.10
2018-04-22T15:09:12.581Z,23.10
2018-04-22T15:11:41.680Z,23.60
2018-04-22T15:14:10.725Z,23.70
2018-04-22T15:16:39.009Z,23.70
2018-04-22T15:19:07.344Z,24.10
2018-04-22T15:21:35.716Z,24.50
2018-04-22T15:24:04.054Z,24.50
2018-04-22T15:26:33.168Z,24.60
2018-04-22T15:29:02.701Z,24.40
2018-04-22T15:31:31.084Z,24.40
2018-04-22T15:33:59.410Z,24.70
2018-04-22T15:36:27.748Z,25.80
2018-04-22T15:38:56.804Z,27.10
2018-04-22T15:41:25.132Z,27.10
2018-04-22T15:43:53.436Z,26.10
2018-04-22T15:46:22.521Z,26.80
2018-04-22T15:48:50.900Z,26.70
2018-04-22T15:51:19.229Z,26.70
2018-04-22T15:53:48.277Z,26.30
2018-04-22T15:56:16.612Z,26.30
2018-04-22T15:58:45.708Z,27.80
2018-04-22T16:01:14.084Z,27.80
2018-04-22T16:03:43.177Z,27.70
2018-04-22T16:06:11.573Z,27.70
2018-04-22T16:08:40.153Z,26.90
2018-04-22T16:11:08.444Z,26.20
2018-04-22T16:13:36.793Z,25.90
2018-04-22T16:16:05.865Z,25.60
2018-04-22T16:18:34.249Z,25.60
2018-04-22T16:21:02.540Z,25.40
2018-04-22T16:23:30.873Z,25.60
2018-04-22T16:25:59.225Z,26.00
2018-04-22T16:28:27.624Z,26.70
2018-04-22T16:30:56.009Z,27.30
2018-04-22T16:33:24.393Z,27.10
2018-04-22T16:35:52.778Z,26.30
2018-04-22T16:38:21.057Z,25.70
2018-04-22T16:40:49.669Z,25.80
2018-04-22T16:43:17.972Z,26.00
2018-04-22T16:45:46.388Z,26.30
2018-04-22T16:48:15.904Z,26.00
2018-04-22T16:50:45.133Z,25.90
2018-04-22T16:53:13.786Z,25.90
2018-04-22T16:55:42.192Z,25.10
2018-04-22T16:58:10.640Z,24.50
2018-04-22T17:00:38.990Z,23.90
2018-04-22T17:03:08.134Z,23.20
2018-04-22T17:05:36.905Z,23.10
2018-04-22T17:08:05.945Z,22.80
2018-04-22T17:10:34.393Z,22.70
2018-04-22T17:13:02.801Z,22.60
2018-04-22T17:15:31.093Z,22.60
2018-04-22T17:17:59.377Z,22.40
2018-04-22T17:20:27.705Z,22.30
2018-04-22T17:22:56.039Z,22.30
2018-04-22T17:25:25.181Z,22.00
2018-04-22T17:27:53.465Z,22.00
2018-04-22T17:30:21.761Z,22.00
2018-04-22T17:32:50.338Z,21.80
2018-04-22T17:35:19.401Z,21.40
2018-04-22T17:37:47.765Z,21.40
2018-04-22T17:40:16.189Z,21.20
2018-04-22T17:42:44.531Z,21.10
2018-04-22T17:45:12.869Z,20.80
2018-04-22T17:47:41.227Z,20.70
2018-04-22T17:50:09.689Z,20.50
2018-04-22T17:52:38.786Z,20.00
2018-04-22T17:55:07.088Z,20.00
2018-04-22T17:57:35.448Z,19.90
2018-04-22T18:00:05.241Z,19.50
2018-04-22T18:02:33.652Z,19.50
2018-04-22T18:05:01.933Z,19.30
2018-04-22T18:07:30.560Z,19.10
2018-04-22T18:09:59.616Z,19.00
2018-04-22T18:12:27.943Z,18.90
2018-04-22T18:14:56.273Z,18.90
2018-04-22T18:17:24.552Z,18.80
2018-04-22T18:19:53.660Z,18.70
2018-04-22T18:22:22.714Z,18.70
2018-04-22T18:24:51.084Z,18.60
2018-04-22T18:27:19.369Z,18.60
2018-04-22T18:29:47.696Z,18.50
2018-04-22T18:32:15.976Z,18.40
2018-04-22T18:34:44.308Z,18.30
2018-04-22T18:37:13.360Z,18.30
2018-04-22T18:39:41.789Z,18.30
2018-04-22T18:42:10.200Z,18.20
2018-04-22T18:44:39.394Z,18.00
2018-04-22T18:47:07.676Z,18.00
2018-04-22T18:49:37.507Z,17.70
2018-04-22T18:52:05.817Z,17.70
2018-04-22T18:54:34.918Z,17.50
2018-04-22T18:57:03.201Z,17.50
2018-04-22T18:59:31.667Z,17.40
2018-04-22T19:02:00.861Z,17.30
2018-04-22T19:04:29.205Z,17.20
2018-04-22T19:06:57.553Z,17.10
2018-04-22T19:09:25.845Z,17.00
2018-04-22T19:11:54.184Z,17.00
2018-04-22T19:14:23.277Z,16.90
2018-04-22T19:16:51.957Z,16.90
2018-04-22T19:19:21.781Z,16.60
2018-04-22T19:21:50.061Z,16.60
2018-04-22T19:24:18.660Z,16.60
2018-04-22T19:26:46.946Z,16.50
2018-04-22T19:29:15.240Z,16.40
2018-04-22T19:31:43.645Z,16.30
2018-04-22T19:34:12.038Z,16.20
2018-04-22T19:36:40.374Z,16.10
2018-04-22T19:39:08.654Z,16.00
2018-04-22T19:41:37.004Z,16.00
2018-04-22T19:44:05.388Z,15.90
2018-04-22T19:46:33.720Z,15.80
2018-04-22T19:49:02.005Z,15.80
2018-04-22T19:51:30.333Z,15.80
2018-04-22T19:53:58.621Z,15.70
2018-04-22T19:56:26.949Z,15.60
2018-04-22T19:58:55.236Z,15.60
2018-04-22T20:01:23.584Z,15.60
2018-04-22T20:03:51.910Z,15.50
2018-04-22T20:06:20.493Z,15.60
2018-04-22T20:08:48.776Z,15.50
2018-04-22T20:11:17.064Z,15.40
2018-04-22T20:13:45.405Z,15.30
2018-04-22T20:16:14.511Z,15.20
2018-04-22T20:18:43.893Z,15.20
2018-04-22T20:21:12.199Z,15.20
2018-04-22T20:23:40.512Z,15.10
2018-04-22T20:26:08.871Z,15.10
2018-04-22T20:28:37.196Z,15.10
2018-04-22T20:31:05.533Z,15.10
2018-04-22T20:33:33.817Z,15.10
2018-04-22T20:36:02.149Z,15.10
2018-04-22T20:38:31.197Z,14.80
2018-04-22T20:40:59.529Z,14.80
2018-04-22T20:43:27.837Z,14.70
2018-04-22T20:45:56.929Z,14.60
2018-04-22T20:48:25.613Z,14.60
2018-04-22T20:50:53.998Z,14.60
2018-04-22T20:53:22.280Z,14.60
2018-04-22T20:55:50.608Z,14.60
2018-04-22T20:58:19.996Z,14.50
2018-04-22T21:00:48.272Z,14.50
2018-04-22T21:03:16.560Z,14.50
2018-04-22T21:05:45.184Z,14.50
2018-04-22T21:08:13.468Z,14.60
2018-04-22T21:10:41.766Z,14.60
2018-04-22T21:13:10.113Z,14.70
2018-04-22T21:15:38.413Z,14.70
2018-04-22T21:18:07.026Z,14.70
2018-04-22T21:20:35.304Z,14.80
2018-04-22T21:23:03.601Z,14.80
2018-04-22T21:25:32.000Z,14.70
2018-04-22T21:28:01.101Z,14.90
2018-04-22T21:30:29.385Z,14.80
2018-04-22T21:32:57.988Z,14.90
2018-04-22T21:35:26.267Z,14.90
2018-04-22T21:37:54.551Z,14.90
2018-04-22T21:40:22.957Z,15.00
2018-04-22T21:42:51.289Z,15.00
2018-04-22T21:45:20.333Z,15.10
2018-04-22T21:47:48.612Z,15.10
2018-04-22T21:50:16.940Z,15.20
2018-04-22T21:52:45.222Z,15.20
2018-04-22T21:55:13.565Z,15.30
2018-04-22T21:57:41.866Z,15.40
2018-04-22T22:00:10.237Z,15.50
2018-04-22T22:02:38.598Z,15.70
2018-04-22T22:05:06.879Z,15.70
2018-04-22T22:07:35.169Z,15.80
2018-04-22T22:10:03.865Z,15.90
2018-04-22T22:12:32.149Z,16.00
2018-04-22T22:15:00.429Z,16.00
2018-04-22T22:17:28.957Z,16.00
2018-04-22T22:19:58.012Z,16.10
2018-04-22T22:22:26.294Z,16.10
2018-04-22T22:24:54.720Z,16.30
2018-04-22T22:27:23.294Z,16.40
2018-04-22T22:29:51.573Z,16.50
2018-04-22T22:32:19.892Z,16.60
2018-04-22T22:34:48.224Z,16.70
2018-04-22T22:37:17.277Z,16.70
2018-04-22T22:39:45.893Z,16.70
2018-04-22T22:42:14.285Z,16.70
2018-04-22T22:44:42.673Z,16.70
2018-04-22T22:47:11.013Z,16.70
2018-04-22T22:49:39.387Z,16.70
2018-04-22T22:52:08.435Z,16.70
2018-04-22T22:54:36.765Z,16.70
2018-04-22T22:57:05.095Z,16.70
2018-04-22T22:59:33.421Z,16.60
2018-04-22T23:02:01.787Z,16.50
2018-04-22T23:04:30.122Z,16.40
2018-04-22T23:06:58.457Z,16.40
2018-04-22T23:09:26.899Z,16.30
2018-04-22T23:11:55.228Z,16.30
2018-04-22T23:14:23.556Z,16.30
2018-04-22T23:16:51.837Z,16.30
2018-04-22T23:19:20.174Z,16.30
2018-04-22T23:21:48.505Z,16.30
2018-04-22T23:24:16.840Z,16.10
2018-04-22T23:26:45.143Z,16.00
2018-04-22T23:29:13.433Z,15.80
2018-04-22T23:31:42.545Z,15.70
2018-04-22T23:34:11.661Z,15.70
2018-04-22T23:36:40.775Z,15.50
2018-04-22T23:39:09.197Z,15.50
2018-04-22T23:41:37.518Z,15.50
2018-04-22T23:44:05.904Z,15.60
2018-04-22T23:46:34.190Z,15.50
2018-04-22T23:49:02.528Z,15.60
2018-04-22T23:51:30.814Z,15.60
2018-04-22T23:53:59.860Z,15.60
2018-04-22T23:56:28.186Z,15.60
2018-04-22T23:58:56.465Z,15.50
